sensor_id;sensor_type;location;lat;lon;timestamp;P1;durP1;ratioP1;P2;durP2;ratioP2
76167;SDS011;64927;48.214;16.378;2022-12-11T00:01:31;52.92;;;29.48;;
76167;SDS011;64927;48.214;16.378;2022-12-11T00:03:57;55.47;;;27.55;;
76167;SDS011;64927;48.214;16.378;2022-12-11T00:06:24;51.33;;;27.85;;
76167;SDS011;64927;48.214;16.378;2022-12-11T00:08:51;53.55;;;27.73;;
76167;SDS011;64927;48.214;16.378;2022-12-11T00:11:20;49.30;;;27.65;;
76167;SDS011;64927;48.214;16.378;2022-12-11T00:13:48;56.38;;;27.88;;
76167;SDS011;64927;48.214;16.378;2022-12-11T00:16:14;48.65;;;26.60;;
76167;SDS011;64927;48.214;16.378;2022-12-11T00:18:39;48.92;;;26.92;;
76167;SDS011;64927;48.214;16.378;2022-12-11T00:21:10;46.70;;;25.65;;
76167;SDS011;64927;48.214;16.378;2022-12-11T00:23:38;45.60;;;25.83;;
76167;SDS011;64927;48.214;16.378;2022-12-11T00:26:05;45.63;;;25.80;;
76167;SDS011;64927;48.214;16.378;2022-12-11T00:28:31;46.05;;;24.73;;
76167;SDS011;64927;48.214;16.378;2022-12-11T00:30:57;43.42;;;25.48;;
76167;SDS011;64927;48.214;16.378;2022-12-11T00:33:25;41.47;;;24.42;;
76167;SDS011;64927;48.214;16.378;2022-12-11T00:35:51;43.00;;;24.02;;
76167;SDS011;64927;48.214;16.378;2022-12-11T00:38:20;48.92;;;24.60;;
76167;SDS011;64927;48.214;16.378;2022-12-11T00:40:46;42.50;;;22.42;;
76167;SDS011;64927;48.214;16.378;2022-12-11T00:43:12;43.50;;;24.52;;
76167;SDS011;64927;48.214;16.378;2022-12-11T00:45:42;41.67;;;23.83;;
76167;SDS011;64927;48.214;16.378;2022-12-11T00:48:10;43.30;;;24.10;;
76167;SDS011;64927;48.214;16.378;2022-12-11T00:50:40;43.70;;;24.95;;
76167;SDS011;64927;48.214;16.378;2022-12-11T00:53:05;43.33;;;23.85;;
76167;SDS011;64927;48.214;16.378;2022-12-11T00:55:35;43.42;;;24.25;;
76167;SDS011;64927;48.214;16.378;2022-12-11T00:58:01;40.67;;;22.90;;
76167;SDS011;64927;48.214;16.378;2022-12-11T01:00:27;42.88;;;23.75;;
76167;SDS011;64927;48.214;16.378;2022-12-11T01:02:52;43.95;;;24.58;;
76167;SDS011;64927;48.214;16.378;2022-12-11T01:05:18;40.38;;;21.90;;
76167;SDS011;64927;48.214;16.378;2022-12-11T01:07:44;39.70;;;22.48;;
76167;SDS011;64927;48.214;16.378;2022-12-11T01:10:10;37.80;;;21.42;;
76167;SDS011;64927;48.214;16.378;2022-12-11T01:12:55;42.75;;;22.33;;
76167;SDS011;64927;48.214;16.378;2022-12-11T01:15:24;39.90;;;21.00;;
76167;SDS011;64927;48.214;16.378;2022-12-11T01:17:55;34.35;;;21.30;;
76167;SDS011;64927;48.214;16.378;2022-12-11T01:20:21;32.67;;;17.98;;
76167;SDS011;64927;48.214;16.378;2022-12-11T01:22:47;35.35;;;19.70;;
76167;SDS011;64927;48.214;16.378;2022-12-11T01:25:17;32.67;;;20.52;;
76167;SDS011;64927;48.214;16.378;2022-12-11T01:27:43;37.78;;;21.88;;
76167;SDS011;64927;48.214;16.378;2022-12-11T01:30:09;35.53;;;20.38;;
76167;SDS011;64927;48.214;16.378;2022-12-11T01:32:35;34.97;;;20.65;;
76167;SDS011;64927;48.214;16.378;2022-12-11T01:35:02;36.03;;;20.80;;
76167;SDS011;64927;48.214;16.378;2022-12-11T01:37:29;32.65;;;20.40;;
76167;SDS011;64927;48.214;16.378;2022-12-11T01:39:58;49.80;;;22.48;;
76167;SDS011;64927;48.214;16.378;2022-12-11T01:42:24;37.08;;;21.65;;
76167;SDS011;64927;48.214;16.378;2022-12-11T01:47:15;36.00;;;21.27;;
76167;SDS011;64927;48.214;16.378;2022-12-11T01:49:41;38.75;;;21.45;;
76167;SDS011;64927;48.214;16.378;2022-12-11T01:52:10;34.38;;;21.23;;
76167;SDS011;64927;48.214;16.378;2022-12-11T01:54:40;35.35;;;20.52;;
76167;SDS011;64927;48.214;16.378;2022-12-11T01:57:07;35.55;;;19.80;;
76167;SDS011;64927;48.214;16.378;2022-12-11T01:59:36;33.75;;;19.52;;
76167;SDS011;64927;48.214;16.378;2022-12-11T02:02:07;34.20;;;19.55;;
76167;SDS011;64927;48.214;16.378;2022-12-11T02:04:35;38.33;;;21.77;;
76167;SDS011;64927;48.214;16.378;2022-12-11T02:07:03;36.83;;;20.10;;
76167;SDS011;64927;48.214;16.378;2022-12-11T02:09:30;34.55;;;19.42;;
76167;SDS011;64927;48.214;16.378;2022-12-11T02:17:47;33.95;;;19.45;;
76167;SDS011;64927;48.214;16.378;2022-12-11T02:28:17;32.13;;;18.98;;
76167;SDS011;64927;48.214;16.378;2022-12-11T02:30:47;36.05;;;20.15;;
76167;SDS011;64927;48.214;16.378;2022-12-11T02:33:17;35.65;;;20.38;;
76167;SDS011;64927;48.214;16.378;2022-12-11T02:35:48;33.28;;;19.83;;
76167;SDS011;64927;48.214;16.378;2022-12-11T02:38:25;36.03;;;19.88;;
76167;SDS011;64927;48.214;16.378;2022-12-11T02:40:55;34.30;;;19.38;;
76167;SDS011;64927;48.214;16.378;2022-12-11T02:43:25;33.13;;;19.13;;
76167;SDS011;64927;48.214;16.378;2022-12-11T02:45:53;29.83;;;19.15;;
76167;SDS011;64927;48.214;16.378;2022-12-11T02:48:21;32.28;;;19.52;;
76167;SDS011;64927;48.214;16.378;2022-12-11T02:50:48;33.83;;;16.77;;
76167;SDS011;64927;48.214;16.378;2022-12-11T02:53:18;34.60;;;17.35;;
76167;SDS011;64927;48.214;16.378;2022-12-11T02:55:49;30.30;;;17.42;;
76167;SDS011;64927;48.214;16.378;2022-12-11T02:58:21;32.28;;;19.10;;
76167;SDS011;64927;48.214;16.378;2022-12-11T03:00:50;29.90;;;18.45;;
76167;SDS011;64927;48.214;16.378;2022-12-11T03:03:18;32.72;;;17.67;;
76167;SDS011;64927;48.214;16.378;2022-12-11T03:05:43;29.77;;;18.42;;
76167;SDS011;64927;48.214;16.378;2022-12-11T03:08:10;32.15;;;19.48;;
76167;SDS011;64927;48.214;16.378;2022-12-11T03:10:36;32.03;;;18.08;;
76167;SDS011;64927;48.214;16.378;2022-12-11T03:13:02;30.15;;;17.50;;
76167;SDS011;64927;48.214;16.378;2022-12-11T03:15:38;33.17;;;17.65;;
76167;SDS011;64927;48.214;16.378;2022-12-11T03:18:25;32.97;;;18.52;;
76167;SDS011;64927;48.214;16.378;2022-12-11T03:26:42;25.63;;;15.70;;
76167;SDS011;64927;48.214;16.378;2022-12-11T03:29:23;26.05;;;14.50;;
76167;SDS011;64927;48.214;16.378;2022-12-11T03:32:00;28.42;;;15.82;;
76167;SDS011;64927;48.214;16.378;2022-12-11T03:34:43;29.73;;;15.90;;
76167;SDS011;64927;48.214;16.378;2022-12-11T03:37:14;26.38;;;16.45;;
76167;SDS011;64927;48.214;16.378;2022-12-11T03:39:43;27.63;;;14.75;;
76167;SDS011;64927;48.214;16.378;2022-12-11T03:42:16;27.35;;;15.43;;
76167;SDS011;64927;48.214;16.378;2022-12-11T03:44:45;28.85;;;15.77;;
76167;SDS011;64927;48.214;16.378;2022-12-11T03:47:14;27.42;;;16.77;;
76167;SDS011;64927;48.214;16.378;2022-12-11T03:49:46;28.65;;;15.63;;
76167;SDS011;64927;48.214;16.378;2022-12-11T03:52:16;22.65;;;13.18;;
76167;SDS011;64927;48.214;16.378;2022-12-11T03:54:42;29.33;;;16.20;;
76167;SDS011;64927;48.214;16.378;2022-12-11T03:57:12;26.85;;;16.60;;
76167;SDS011;64927;48.214;16.378;2022-12-11T03:59:45;26.58;;;15.52;;
76167;SDS011;64927;48.214;16.378;2022-12-11T04:02:11;29.00;;;17.10;;
76167;SDS011;64927;48.214;16.378;2022-12-11T04:04:37;27.40;;;15.85;;
76167;SDS011;64927;48.214;16.378;2022-12-11T04:07:04;27.15;;;15.93;;
76167;SDS011;64927;48.214;16.378;2022-12-11T04:09:32;29.83;;;17.63;;
76167;SDS011;64927;48.214;16.378;2022-12-11T04:11:58;26.35;;;15.70;;
76167;SDS011;64927;48.214;16.378;2022-12-11T04:14:24;25.67;;;15.75;;
76167;SDS011;64927;48.214;16.378;2022-12-11T04:17:08;30.50;;;17.60;;
76167;SDS011;64927;48.214;16.378;2022-12-11T04:19:34;27.50;;;15.75;;
76167;SDS011;64927;48.214;16.378;2022-12-11T04:22:35;29.08;;;17.08;;
76167;SDS011;64927;48.214;16.378;2022-12-11T04:25:19;28.33;;;17.75;;
76167;SDS011;64927;48.214;16.378;2022-12-11T04:27:44;28.00;;;15.13;;
76167;SDS011;64927;48.214;16.378;2022-12-11T04:30:17;28.73;;;16.20;;
76167;SDS011;64927;48.214;16.378;2022-12-11T04:32:46;28.88;;;18.02;;
76167;SDS011;64927;48.214;16.378;2022-12-11T04:35:12;26.60;;;16.10;;
76167;SDS011;64927;48.214;16.378;2022-12-11T04:37:40;29.98;;;17.48;;
76167;SDS011;64927;48.214;16.378;2022-12-11T04:40:07;28.20;;;16.90;;
76167;SDS011;64927;48.214;16.378;2022-12-11T04:42:34;32.03;;;17.55;;
76167;SDS011;64927;48.214;16.378;2022-12-11T04:45:03;30.35;;;16.17;;
76167;SDS011;64927;48.214;16.378;2022-12-11T04:47:30;28.58;;;16.98;;
76167;SDS011;64927;48.214;16.378;2022-12-11T04:49:55;28.83;;;17.80;;
76167;SDS011;64927;48.214;16.378;2022-12-11T04:52:21;28.58;;;17.17;;
76167;SDS011;64927;48.214;16.378;2022-12-11T04:54:46;29.13;;;16.85;;
76167;SDS011;64927;48.214;16.378;2022-12-11T04:57:12;33.42;;;18.67;;
76167;SDS011;64927;48.214;16.378;2022-12-11T04:59:38;32.05;;;19.67;;
76167;SDS011;64927;48.214;16.378;2022-12-11T05:02:04;30.13;;;17.92;;
76167;SDS011;64927;48.214;16.378;2022-12-11T05:04:32;33.13;;;19.17;;
76167;SDS011;64927;48.214;16.378;2022-12-11T05:06:59;27.70;;;16.95;;
76167;SDS011;64927;48.214;16.378;2022-12-11T05:09:26;27.77;;;17.20;;
76167;SDS011;64927;48.214;16.378;2022-12-11T05:11:51;24.77;;;16.25;;
76167;SDS011;64927;48.214;16.378;2022-12-11T05:14:17;29.65;;;18.20;;
76167;SDS011;64927;48.214;16.378;2022-12-11T05:16:45;33.05;;;19.20;;
76167;SDS011;64927;48.214;16.378;2022-12-11T05:19:11;29.38;;;18.70;;
76167;SDS011;64927;48.214;16.378;2022-12-11T05:21:37;31.13;;;18.63;;
76167;SDS011;64927;48.214;16.378;2022-12-11T05:24:03;30.15;;;19.25;;
76167;SDS011;64927;48.214;16.378;2022-12-11T05:26:28;29.20;;;18.35;;
76167;SDS011;64927;48.214;16.378;2022-12-11T05:28:54;30.13;;;18.17;;
76167;SDS011;64927;48.214;16.378;2022-12-11T05:31:22;28.30;;;17.85;;
76167;SDS011;64927;48.214;16.378;2022-12-11T05:33:49;29.63;;;18.15;;
76167;SDS011;64927;48.214;16.378;2022-12-11T05:36:19;29.20;;;17.40;;
76167;SDS011;64927;48.214;16.378;2022-12-11T05:38:47;31.33;;;19.42;;
76167;SDS011;64927;48.214;16.378;2022-12-11T05:41:15;31.33;;;17.65;;
76167;SDS011;64927;48.214;16.378;2022-12-11T05:43:44;29.45;;;17.70;;
76167;SDS011;64927;48.214;16.378;2022-12-11T05:46:15;31.42;;;18.83;;
76167;SDS011;64927;48.214;16.378;2022-12-11T05:48:49;32.47;;;20.25;;
76167;SDS011;64927;48.214;16.378;2022-12-11T05:51:17;31.38;;;18.05;;
76167;SDS011;64927;48.214;16.378;2022-12-11T05:53:43;28.45;;;18.00;;
76167;SDS011;64927;48.214;16.378;2022-12-11T05:56:16;32.70;;;19.70;;
76167;SDS011;64927;48.214;16.378;2022-12-11T05:58:47;33.58;;;18.25;;
76167;SDS011;64927;48.214;16.378;2022-12-11T06:01:16;29.25;;;18.48;;
76167;SDS011;64927;48.214;16.378;2022-12-11T06:03:50;27.35;;;16.88;;
76167;SDS011;64927;48.214;16.378;2022-12-11T06:06:17;30.00;;;18.17;;
76167;SDS011;64927;48.214;16.378;2022-12-11T06:08:43;30.63;;;18.25;;
76167;SDS011;64927;48.214;16.378;2022-12-11T06:11:10;26.05;;;17.33;;
76167;SDS011;64927;48.214;16.378;2022-12-11T06:13:38;27.30;;;16.08;;
76167;SDS011;64927;48.214;16.378;2022-12-11T06:16:06;28.48;;;17.70;;
76167;SDS011;64927;48.214;16.378;2022-12-11T06:18:40;24.75;;;16.35;;
76167;SDS011;64927;48.214;16.378;2022-12-11T06:21:10;26.08;;;16.02;;
76167;SDS011;64927;48.214;16.378;2022-12-11T06:23:41;26.48;;;16.75;;
76167;SDS011;64927;48.214;16.378;2022-12-11T06:26:07;27.05;;;15.75;;
76167;SDS011;64927;48.214;16.378;2022-12-11T06:28:34;22.60;;;14.23;;
76167;SDS011;64927;48.214;16.378;2022-12-11T06:31:00;23.98;;;15.23;;
76167;SDS011;64927;48.214;16.378;2022-12-11T06:33:26;20.67;;;14.23;;
76167;SDS011;64927;48.214;16.378;2022-12-11T06:35:52;20.85;;;13.73;;
76167;SDS011;64927;48.214;16.378;2022-12-11T06:38:20;17.58;;;12.85;;
76167;SDS011;64927;48.214;16.378;2022-12-11T06:40:55;21.92;;;14.25;;
76167;SDS011;64927;48.214;16.378;2022-12-11T06:43:22;22.58;;;13.57;;
76167;SDS011;64927;48.214;16.378;2022-12-11T06:45:48;18.25;;;12.55;;
76167;SDS011;64927;48.214;16.378;2022-12-11T06:48:14;19.75;;;12.55;;
76167;SDS011;64927;48.214;16.378;2022-12-11T06:50:40;19.90;;;11.73;;
76167;SDS011;64927;48.214;16.378;2022-12-11T06:53:05;18.55;;;13.38;;
76167;SDS011;64927;48.214;16.378;2022-12-11T06:55:36;17.65;;;11.88;;
76167;SDS011;64927;48.214;16.378;2022-12-11T06:58:02;21.05;;;12.30;;
76167;SDS011;64927;48.214;16.378;2022-12-11T07:00:28;19.02;;;12.02;;
76167;SDS011;64927;48.214;16.378;2022-12-11T07:02:53;22.70;;;12.35;;
76167;SDS011;64927;48.214;16.378;2022-12-11T07:05:19;15.52;;;10.88;;
76167;SDS011;64927;48.214;16.378;2022-12-11T07:07:45;17.65;;;11.80;;
76167;SDS011;64927;48.214;16.378;2022-12-11T07:10:15;18.65;;;12.40;;
76167;SDS011;64927;48.214;16.378;2022-12-11T07:12:40;17.25;;;11.50;;
76167;SDS011;64927;48.214;16.378;2022-12-11T07:15:06;16.45;;;10.75;;
76167;SDS011;64927;48.214;16.378;2022-12-11T07:17:32;15.88;;;10.85;;
76167;SDS011;64927;48.214;16.378;2022-12-11T07:20:00;15.23;;;10.07;;
76167;SDS011;64927;48.214;16.378;2022-12-11T07:22:27;18.23;;;11.05;;
76167;SDS011;64927;48.214;16.378;2022-12-11T07:24:53;16.83;;;10.85;;
76167;SDS011;64927;48.214;16.378;2022-12-11T07:27:18;16.63;;;11.32;;
76167;SDS011;64927;48.214;16.378;2022-12-11T07:29:47;16.08;;;10.93;;
76167;SDS011;64927;48.214;16.378;2022-12-11T07:32:14;15.77;;;10.35;;
76167;SDS011;64927;48.214;16.378;2022-12-11T07:34:40;16.77;;;10.95;;
76167;SDS011;64927;48.214;16.378;2022-12-11T07:37:06;16.95;;;11.35;;
76167;SDS011;64927;48.214;16.378;2022-12-11T07:39:31;14.98;;;10.38;;
76167;SDS011;64927;48.214;16.378;2022-12-11T07:41:57;16.38;;;10.95;;
76167;SDS011;64927;48.214;16.378;2022-12-11T07:44:25;16.52;;;11.30;;
76167;SDS011;64927;48.214;16.378;2022-12-11T07:46:53;16.10;;;9.13;;
76167;SDS011;64927;48.214;16.378;2022-12-11T07:49:19;14.80;;;10.30;;
76167;SDS011;64927;48.214;16.378;2022-12-11T07:51:47;14.70;;;10.20;;
76167;SDS011;64927;48.214;16.378;2022-12-11T07:54:13;15.18;;;10.50;;
76167;SDS011;64927;48.214;16.378;2022-12-11T07:56:43;14.55;;;9.57;;
76167;SDS011;64927;48.214;16.378;2022-12-11T07:59:10;15.65;;;10.57;;
76167;SDS011;64927;48.214;16.378;2022-12-11T08:01:36;15.20;;;10.70;;
76167;SDS011;64927;48.214;16.378;2022-12-11T08:04:04;16.65;;;10.80;;
76167;SDS011;64927;48.214;16.378;2022-12-11T08:06:36;14.23;;;10.30;;
76167;SDS011;64927;48.214;16.378;2022-12-11T08:09:04;17.50;;;10.88;;
76167;SDS011;64927;48.214;16.378;2022-12-11T08:11:33;17.35;;;9.88;;
76167;SDS011;64927;48.214;16.378;2022-12-11T08:13:59;16.00;;;10.98;;
76167;SDS011;64927;48.214;16.378;2022-12-11T08:16:26;15.88;;;11.43;;
76167;SDS011;64927;48.214;16.378;2022-12-11T08:18:54;16.00;;;11.65;;
76167;SDS011;64927;48.214;16.378;2022-12-11T08:21:21;16.90;;;11.60;;
76167;SDS011;64927;48.214;16.378;2022-12-11T08:23:51;17.50;;;11.45;;
76167;SDS011;64927;48.214;16.378;2022-12-11T08:26:24;16.05;;;10.13;;
76167;SDS011;64927;48.214;16.378;2022-12-11T08:28:52;17.27;;;12.25;;
76167;SDS011;64927;48.214;16.378;2022-12-11T08:31:18;15.32;;;10.48;;
76167;SDS011;64927;48.214;16.378;2022-12-11T08:33:45;16.13;;;10.40;;
76167;SDS011;64927;48.214;16.378;2022-12-11T08:36:12;16.35;;;10.13;;
76167;SDS011;64927;48.214;16.378;2022-12-11T08:38:39;16.42;;;11.15;;
76167;SDS011;64927;48.214;16.378;2022-12-11T08:41:09;15.05;;;10.50;;
76167;SDS011;64927;48.214;16.378;2022-12-11T08:43:39;16.23;;;12.00;;
76167;SDS011;64927;48.214;16.378;2022-12-11T08:46:05;17.33;;;11.35;;
76167;SDS011;64927;48.214;16.378;2022-12-11T08:48:32;16.73;;;11.00;;
76167;SDS011;64927;48.214;16.378;2022-12-11T08:51:02;15.73;;;10.57;;
76167;SDS011;64927;48.214;16.378;2022-12-11T08:53:29;14.10;;;9.85;;
76167;SDS011;64927;48.214;16.378;2022-12-11T08:56:02;15.68;;;10.95;;
76167;SDS011;64927;48.214;16.378;2022-12-11T08:58:30;15.18;;;9.98;;
76167;SDS011;64927;48.214;16.378;2022-12-11T09:00:55;13.70;;;9.95;;
76167;SDS011;64927;48.214;16.378;2022-12-11T09:03:21;14.75;;;8.35;;
76167;SDS011;64927;48.214;16.378;2022-12-11T09:05:48;17.17;;;10.15;;
76167;SDS011;64927;48.214;16.378;2022-12-11T09:08:13;15.20;;;10.15;;
76167;SDS011;64927;48.214;16.378;2022-12-11T09:10:39;13.70;;;9.80;;
76167;SDS011;64927;48.214;16.378;2022-12-11T09:13:05;14.40;;;9.90;;
76167;SDS011;64927;48.214;16.378;2022-12-11T09:15:31;15.45;;;9.98;;
76167;SDS011;64927;48.214;16.378;2022-12-11T09:17:57;13.55;;;9.18;;
76167;SDS011;64927;48.214;16.378;2022-12-11T09:20:22;15.02;;;10.88;;
76167;SDS011;64927;48.214;16.378;2022-12-11T09:22:48;14.68;;;9.80;;
76167;SDS011;64927;48.214;16.378;2022-12-11T09:25:16;12.65;;;8.73;;
76167;SDS011;64927;48.214;16.378;2022-12-11T09:27:44;13.65;;;9.05;;
76167;SDS011;64927;48.214;16.378;2022-12-11T09:30:09;15.00;;;9.50;;
76167;SDS011;64927;48.214;16.378;2022-12-11T09:32:37;20.02;;;10.52;;
76167;SDS011;64927;48.214;16.378;2022-12-11T09:35:05;14.48;;;8.52;;
76167;SDS011;64927;48.214;16.378;2022-12-11T09:37:35;10.98;;;7.60;;
76167;SDS011;64927;48.214;16.378;2022-12-11T09:40:00;10.65;;;8.20;;
76167;SDS011;64927;48.214;16.378;2022-12-11T09:42:31;12.52;;;8.73;;
76167;SDS011;64927;48.214;16.378;2022-12-11T09:45:14;12.38;;;8.57;;
76167;SDS011;64927;48.214;16.378;2022-12-11T09:47:44;11.80;;;7.82;;
76167;SDS011;64927;48.214;16.378;2022-12-11T09:50:16;11.35;;;8.20;;
76167;SDS011;64927;48.214;16.378;2022-12-11T09:53:06;12.60;;;9.05;;
76167;SDS011;64927;48.214;16.378;2022-12-11T10:01:49;12.07;;;9.00;;
76167;SDS011;64927;48.214;16.378;2022-12-11T10:17:59;12.00;;;7.85;;
76167;SDS011;64927;48.214;16.378;2022-12-11T10:20:44;11.05;;;7.45;;
76167;SDS011;64927;48.214;16.378;2022-12-11T10:23:21;8.90;;;6.72;;
76167;SDS011;64927;48.214;16.378;2022-12-11T10:25:53;9.85;;;7.57;;
76167;SDS011;64927;48.214;16.378;2022-12-11T10:28:26;13.65;;;8.80;;
76167;SDS011;64927;48.214;16.378;2022-12-11T10:36:11;10.73;;;6.60;;
76167;SDS011;64927;48.214;16.378;2022-12-11T10:38:42;10.95;;;7.63;;
76167;SDS011;64927;48.214;16.378;2022-12-11T10:41:13;11.50;;;7.97;;
76167;SDS011;64927;48.214;16.378;2022-12-11T10:43:43;12.07;;;7.55;;
76167;SDS011;64927;48.214;16.378;2022-12-11T10:46:23;10.00;;;6.50;;
76167;SDS011;64927;48.214;16.378;2022-12-11T10:48:51;11.68;;;7.70;;
76167;SDS011;64927;48.214;16.378;2022-12-11T10:53:56;12.30;;;7.55;;
76167;SDS011;64927;48.214;16.378;2022-12-11T10:56:32;11.05;;;7.47;;
76167;SDS011;64927;48.214;16.378;2022-12-11T10:59:04;10.48;;;7.32;;
76167;SDS011;64927;48.214;16.378;2022-12-11T11:01:30;11.70;;;7.88;;
76167;SDS011;64927;48.214;16.378;2022-12-11T11:06:27;12.60;;;8.57;;
76167;SDS011;64927;48.214;16.378;2022-12-11T11:08:54;13.20;;;8.38;;
76167;SDS011;64927;48.214;16.378;2022-12-11T11:11:32;19.38;;;9.13;;
76167;SDS011;64927;48.214;16.378;2022-12-11T11:14:17;13.07;;;9.38;;
76167;SDS011;64927;48.214;16.378;2022-12-11T11:16:45;13.00;;;8.43;;
76167;SDS011;64927;48.214;16.378;2022-12-11T11:19:15;13.60;;;8.63;;
76167;SDS011;64927;48.214;16.378;2022-12-11T11:21:47;11.57;;;8.05;;
76167;SDS011;64927;48.214;16.378;2022-12-11T11:24:27;12.33;;;8.63;;
76167;SDS011;64927;48.214;16.378;2022-12-11T11:26:59;12.55;;;8.25;;
76167;SDS011;64927;48.214;16.378;2022-12-11T11:29:29;12.60;;;8.40;;
76167;SDS011;64927;48.214;16.378;2022-12-11T11:32:21;11.50;;;8.75;;
76167;SDS011;64927;48.214;16.378;2022-12-11T11:34:50;9.98;;;7.63;;
76167;SDS011;64927;48.214;16.378;2022-12-11T11:37:29;11.48;;;7.40;;
76167;SDS011;64927;48.214;16.378;2022-12-11T11:40:00;11.52;;;7.50;;
76167;SDS011;64927;48.214;16.378;2022-12-11T11:45:18;12.52;;;8.20;;
76167;SDS011;64927;48.214;16.378;2022-12-11T11:47:59;10.70;;;7.22;;
76167;SDS011;64927;48.214;16.378;2022-12-11T11:50:34;10.90;;;6.43;;
76167;SDS011;64927;48.214;16.378;2022-12-11T11:53:23;10.55;;;7.13;;
76167;SDS011;64927;48.214;16.378;2022-12-11T11:58:43;10.77;;;7.13;;
76167;SDS011;64927;48.214;16.378;2022-12-11T12:01:15;11.18;;;7.22;;
76167;SDS011;64927;48.214;16.378;2022-12-11T12:03:44;9.82;;;6.43;;
76167;SDS011;64927;48.214;16.378;2022-12-11T12:08:41;10.57;;;6.38;;
76167;SDS011;64927;48.214;16.378;2022-12-11T12:11:33;9.98;;;5.90;;
76167;SDS011;64927;48.214;16.378;2022-12-11T12:20:01;8.70;;;6.07;;
76167;SDS011;64927;48.214;16.378;2022-12-11T12:33:33;9.88;;;6.70;;
76167;SDS011;64927;48.214;16.378;2022-12-11T12:44:18;11.15;;;7.70;;
76167;SDS011;64927;48.214;16.378;2022-12-11T12:49:42;10.60;;;7.28;;
76167;SDS011;64927;48.214;16.378;2022-12-11T12:52:11;17.27;;;9.55;;
76167;SDS011;64927;48.214;16.378;2022-12-11T12:54:53;11.70;;;7.07;;
76167;SDS011;64927;48.214;16.378;2022-12-11T12:58:04;12.88;;;7.57;;
76167;SDS011;64927;48.214;16.378;2022-12-11T13:02:59;10.93;;;7.20;;
76167;SDS011;64927;48.214;16.378;2022-12-11T13:05:39;10.40;;;6.90;;
76167;SDS011;64927;48.214;16.378;2022-12-11T13:08:07;9.93;;;6.55;;
76167;SDS011;64927;48.214;16.378;2022-12-11T13:10:35;10.93;;;7.28;;
76167;SDS011;64927;48.214;16.378;2022-12-11T13:13:04;14.15;;;7.68;;
76167;SDS011;64927;48.214;16.378;2022-12-11T13:15:49;11.15;;;7.30;;
76167;SDS011;64927;48.214;16.378;2022-12-11T13:18:34;11.50;;;7.43;;
76167;SDS011;64927;48.214;16.378;2022-12-11T13:21:53;12.93;;;7.93;;
76167;SDS011;64927;48.214;16.378;2022-12-11T13:26:43;11.00;;;7.65;;
76167;SDS011;64927;48.214;16.378;2022-12-11T13:34:32;10.48;;;7.28;;
76167;SDS011;64927;48.214;16.378;2022-12-11T13:37:01;12.05;;;6.72;;
76167;SDS011;64927;48.214;16.378;2022-12-11T13:39:32;11.15;;;6.80;;
76167;SDS011;64927;48.214;16.378;2022-12-11T13:42:05;9.50;;;6.85;;
76167;SDS011;64927;48.214;16.378;2022-12-11T13:44:35;10.80;;;7.30;;
76167;SDS011;64927;48.214;16.378;2022-12-11T13:47:10;8.55;;;5.00;;
76167;SDS011;64927;48.214;16.378;2022-12-11T13:49:45;10.55;;;6.70;;
76167;SDS011;64927;48.214;16.378;2022-12-11T13:52:24;11.13;;;7.40;;
76167;SDS011;64927;48.214;16.378;2022-12-11T13:54:51;12.50;;;7.22;;
76167;SDS011;64927;48.214;16.378;2022-12-11T13:57:24;13.57;;;7.50;;
76167;SDS011;64927;48.214;16.378;2022-12-11T13:59:53;12.38;;;7.32;;
76167;SDS011;64927;48.214;16.378;2022-12-11T14:02:27;10.82;;;6.57;;
76167;SDS011;64927;48.214;16.378;2022-12-11T14:05:02;10.77;;;6.70;;
76167;SDS011;64927;48.214;16.378;2022-12-11T14:07:41;10.45;;;7.03;;
76167;SDS011;64927;48.214;16.378;2022-12-11T14:12:46;9.10;;;6.13;;
76167;SDS011;64927;48.214;16.378;2022-12-11T14:15:38;9.05;;;5.95;;
76167;SDS011;64927;48.214;16.378;2022-12-11T14:18:13;9.77;;;6.35;;
76167;SDS011;64927;48.214;16.378;2022-12-11T14:20:44;12.45;;;6.80;;
76167;SDS011;64927;48.214;16.378;2022-12-11T14:23:18;10.93;;;6.78;;
76167;SDS011;64927;48.214;16.378;2022-12-11T14:28:25;9.88;;;6.70;;
76167;SDS011;64927;48.214;16.378;2022-12-11T14:30:56;12.80;;;7.40;;
76167;SDS011;64927;48.214;16.378;2022-12-11T14:33:26;11.18;;;7.32;;
76167;SDS011;64927;48.214;16.378;2022-12-11T14:35:57;11.13;;;6.90;;
76167;SDS011;64927;48.214;16.378;2022-12-11T14:38:25;11.10;;;6.65;;
76167;SDS011;64927;48.214;16.378;2022-12-11T14:41:03;9.00;;;6.40;;
76167;SDS011;64927;48.214;16.378;2022-12-11T14:43:41;10.45;;;6.80;;
76167;SDS011;64927;48.214;16.378;2022-12-11T14:46:15;11.98;;;7.60;;
76167;SDS011;64927;48.214;16.378;2022-12-11T14:48:56;10.53;;;6.57;;
76167;SDS011;64927;48.214;16.378;2022-12-11T14:51:27;9.90;;;7.15;;
76167;SDS011;64927;48.214;16.378;2022-12-11T14:53:59;11.52;;;7.38;;
76167;SDS011;64927;48.214;16.378;2022-12-11T14:56:30;12.77;;;7.93;;
76167;SDS011;64927;48.214;16.378;2022-12-11T14:59:01;12.93;;;8.23;;
76167;SDS011;64927;48.214;16.378;2022-12-11T15:01:31;12.07;;;7.85;;
76167;SDS011;64927;48.214;16.378;2022-12-11T15:04:31;12.15;;;7.65;;
76167;SDS011;64927;48.214;16.378;2022-12-11T15:06:54;10.52;;;7.05;;
76167;SDS011;64927;48.214;16.378;2022-12-11T15:09:23;12.70;;;7.95;;
76167;SDS011;64927;48.214;16.378;2022-12-11T15:11:57;11.75;;;7.88;;
76167;SDS011;64927;48.214;16.378;2022-12-11T15:14:31;10.57;;;7.57;;
76167;SDS011;64927;48.214;16.378;2022-12-11T15:17:00;13.82;;;8.80;;
76167;SDS011;64927;48.214;16.378;2022-12-11T15:19:31;12.80;;;7.88;;
76167;SDS011;64927;48.214;16.378;2022-12-11T15:22:05;14.95;;;9.20;;
76167;SDS011;64927;48.214;16.378;2022-12-11T15:24:35;8.43;;;6.15;;
76167;SDS011;64927;48.214;16.378;2022-12-11T15:27:22;10.52;;;7.07;;
76167;SDS011;64927;48.214;16.378;2022-12-11T15:29:59;12.32;;;7.38;;
76167;SDS011;64927;48.214;16.378;2022-12-11T15:32:26;10.45;;;6.93;;
76167;SDS011;64927;48.214;16.378;2022-12-11T15:34:54;11.45;;;7.70;;
76167;SDS011;64927;48.214;16.378;2022-12-11T15:37:25;11.73;;;6.68;;
76167;SDS011;64927;48.214;16.378;2022-12-11T15:39:52;11.45;;;7.30;;
76167;SDS011;64927;48.214;16.378;2022-12-11T15:42:28;13.02;;;8.10;;
76167;SDS011;64927;48.214;16.378;2022-12-11T15:45:04;11.60;;;7.00;;
76167;SDS011;64927;48.214;16.378;2022-12-11T15:47:33;13.60;;;7.45;;
76167;SDS011;64927;48.214;16.378;2022-12-11T15:50:10;11.02;;;7.72;;
76167;SDS011;64927;48.214;16.378;2022-12-11T15:52:42;11.05;;;7.28;;
76167;SDS011;64927;48.214;16.378;2022-12-11T15:55:09;10.75;;;7.20;;
76167;SDS011;64927;48.214;16.378;2022-12-11T15:57:35;11.05;;;7.28;;
76167;SDS011;64927;48.214;16.378;2022-12-11T16:00:02;11.95;;;7.70;;
76167;SDS011;64927;48.214;16.378;2022-12-11T16:02:30;11.75;;;7.78;;
76167;SDS011;64927;48.214;16.378;2022-12-11T16:04:58;15.43;;;8.20;;
76167;SDS011;64927;48.214;16.378;2022-12-11T16:07:24;14.85;;;8.35;;
76167;SDS011;64927;48.214;16.378;2022-12-11T16:09:53;10.27;;;7.57;;
76167;SDS011;64927;48.214;16.378;2022-12-11T16:12:19;14.85;;;8.93;;
76167;SDS011;64927;48.214;16.378;2022-12-11T16:14:45;19.70;;;10.77;;